Airfield :
LOGIN :

Register | Disclaimer

   EN    FR    IT 

 










Legend :    VFR   Marginal VFR   IFR   Intensive IFR   Very Intensive IFR
Visi :
Ceiling :
>= 8 km
>= 3000ft
5 to 8 km
1000 to 3000 ft
1500m to 5 km
500 to 1000 ft
800 to 1500m
200 to 500 ft
< 800m
< 200 ft
Symbols :   Thunderstorms  Fog  Heavy snow  Heavy precipitations  Wind > 20 kt
SIGMETs :     Misc.  Thunderstorms  Icing  Turbulence  Mountain Waves  Volcanic Ashes






- Airport Elevation : 755 ft
- IATA code : DRS


EDDC - Dresden Klotzsche

CURRENT METAR :
  • 150950Z AUTO VRB03KT CAVOK 27/15 Q1005 NOSIG

EXPIRED METARs :
  • 150920Z AUTO 22004KT 100V270 CAVOK 27/15 Q1006 NOSIG
  • 150850Z AUTO 23004KT 180V350 CAVOK 28/15 Q1006
  • 150820Z AUTO 22005KT 130V260 CAVOK 25/16 Q1006 NOSIG
  • 150750Z AUTO VRB02KT CAVOK 25/16 Q1006
  • 150720Z AUTO VRB02KT CAVOK 22/16 Q1006 NOSIG
  • 150650Z AUTO 21004KT CAVOK 20/16 Q1006 NOSIG

TAF TAF EDDC
Valid from the 15 at 06:00 until the 16 at 06:00 UTC


150500Z 1506/1606 16004KT CAVOK
BECMG 1510/1513 22006KT
TEMPO 1511/1516 25020G35KT 2000 +TSRAGR BKN030CB



MET'MAP, your aeronautical weather chart ! - Copyright ORBIFLY December 2007 - Disclaimer

ORBIFLY MET'MAP TEAM :

Programming & Development : Alexandra Zaïnal
Original concept : Baudouin d'Aumeries
Technical & hardware support : Manuel Goepfert
Assistance : Marc-Olivier Méhu




SOURCES & CREDITS :

   NOAA